createdAt,value
2017-08-20T03:31:27.761Z,3.20
2017-08-20T03:33:55.411Z,3.27
2017-08-20T03:36:23.097Z,3.60
2017-08-20T03:38:51.094Z,3.30
2017-08-20T03:41:18.727Z,3.57
2017-08-20T03:43:46.364Z,3.50
2017-08-20T03:46:14.362Z,2.60
2017-08-20T03:48:41.997Z,3.33
2017-08-20T03:51:09.734Z,3.43
2017-08-20T03:53:37.759Z,4.03
2017-08-20T03:56:05.449Z,3.77
2017-08-20T03:58:33.096Z,3.67
2017-08-20T04:01:01.509Z,3.20
2017-08-20T04:03:29.157Z,3.53
2017-08-20T04:05:56.837Z,3.70
2017-08-20T04:08:24.489Z,3.57
2017-08-20T04:10:52.529Z,4.10
2017-08-20T04:13:21.009Z,3.30
2017-08-20T04:15:49.436Z,2.80
2017-08-20T04:18:17.104Z,3.20
2017-08-20T04:20:44.757Z,3.10
2017-08-20T04:23:12.413Z,3.60
2017-08-20T04:25:40.073Z,3.53
2017-08-20T04:28:07.755Z,3.53
2017-08-20T04:30:35.407Z,3.00
2017-08-20T04:33:03.381Z,3.07
2017-08-20T04:35:31.087Z,3.90
2017-08-20T04:37:59.488Z,3.60
2017-08-20T04:40:27.160Z,4.07
2017-08-20T04:42:54.824Z,3.90
2017-08-20T04:45:22.499Z,3.97
2017-08-20T04:47:50.137Z,3.00
2017-08-20T04:50:18.181Z,3.60
2017-08-20T04:52:45.823Z,4.07
2017-08-20T04:55:13.465Z,3.13
2017-08-20T04:57:41.213Z,3.20
2017-08-20T05:00:08.838Z,3.63
2017-08-20T05:02:37.272Z,3.20
2017-08-20T05:05:04.939Z,3.37
2017-08-20T05:07:32.592Z,3.57
2017-08-20T05:10:00.221Z,4.03
2017-08-20T05:12:28.272Z,3.10
2017-08-20T05:14:56.673Z,3.37
2017-08-20T05:17:24.321Z,2.80
2017-08-20T05:19:52.765Z,3.27
2017-08-20T05:22:20.405Z,3.07
2017-08-20T05:24:48.090Z,3.23
2017-08-20T05:27:15.739Z,3.77
2017-08-20T05:29:43.390Z,2.83
2017-08-20T05:32:11.104Z,3.53
2017-08-20T05:34:39.891Z,3.40
2017-08-20T05:37:08.302Z,3.20
2017-08-20T05:39:35.932Z,3.60
2017-08-20T05:42:04.354Z,3.30
2017-08-20T05:44:31.979Z,3.17
2017-08-20T05:47:00.420Z,2.73
2017-08-20T05:49:28.056Z,3.60
2017-08-20T05:51:55.721Z,3.37
2017-08-20T05:54:23.354Z,3.40
2017-08-20T05:56:51.004Z,3.90
2017-08-20T05:59:19.406Z,3.50
2017-08-20T06:01:47.415Z,3.43
2017-08-20T06:04:15.059Z,3.27
2017-08-20T06:06:42.702Z,2.80
2017-08-20T06:09:10.374Z,3.03
2017-08-20T06:11:38.021Z,3.00
2017-08-20T06:14:05.674Z,3.10
2017-08-20T06:16:33.291Z,2.70
2017-08-20T06:19:01.307Z,3.13
2017-08-20T06:21:28.957Z,2.90
2017-08-20T06:23:56.591Z,2.83
2017-08-20T06:26:24.604Z,2.90
2017-08-20T06:28:52.258Z,2.67
2017-08-20T06:31:19.921Z,2.80
2017-08-20T06:33:47.970Z,3.07
2017-08-20T06:36:16.447Z,2.87
2017-08-20T06:38:44.871Z,2.97
2017-08-20T06:41:12.864Z,2.60
2017-08-20T06:43:40.511Z,3.40
2017-08-20T06:46:08.145Z,2.53
2017-08-20T06:48:35.805Z,2.10
2017-08-20T06:51:03.449Z,2.37
2017-08-20T06:53:31.866Z,2.30
2017-08-20T06:55:59.518Z,2.53
2017-08-20T06:58:27.496Z,2.50
2017-08-20T07:00:55.152Z,3.30
2017-08-20T07:03:22.804Z,2.50
2017-08-20T07:05:50.475Z,2.50
2017-08-20T07:08:18.112Z,2.20
2017-08-20T07:10:46.530Z,2.20
2017-08-20T07:13:14.176Z,2.80
2017-08-20T07:15:41.838Z,3.20
2017-08-20T07:18:09.481Z,2.43
2017-08-20T07:20:38.271Z,1.70
2017-08-20T07:23:05.921Z,2.40
2017-08-20T07:25:34.324Z,3.10
2017-08-20T07:28:02.382Z,2.20
2017-08-20T07:30:30.034Z,2.53
2017-08-20T07:32:58.524Z,2.40
2017-08-20T07:35:26.203Z,2.13
2017-08-20T07:37:53.852Z,2.37
2017-08-20T07:40:21.513Z,2.20
2017-08-20T07:42:49.191Z,2.00
2017-08-20T07:45:16.976Z,2.60
2017-08-20T07:47:44.608Z,3.27
2017-08-20T07:50:12.264Z,3.50
2017-08-20T07:52:39.955Z,2.50
2017-08-20T07:55:07.599Z,2.17
2017-08-20T07:57:35.385Z,2.53
2017-08-20T08:00:03.081Z,2.07
2017-08-20T08:02:30.769Z,2.07
2017-08-20T08:04:59.206Z,2.83
2017-08-20T08:07:26.898Z,2.53
2017-08-20T08:09:55.330Z,2.47
2017-08-20T08:12:23.017Z,1.90
2017-08-20T08:14:50.972Z,2.40
2017-08-20T08:17:18.643Z,2.40
2017-08-20T08:19:46.283Z,2.60
2017-08-20T08:22:13.960Z,2.00
2017-08-20T08:24:41.668Z,2.87
2017-08-20T08:27:10.060Z,2.90
2017-08-20T08:29:37.731Z,2.23
2017-08-20T08:32:05.386Z,2.40
2017-08-20T08:34:33.079Z,1.87
2017-08-20T08:37:00.728Z,2.20
2017-08-20T08:39:28.378Z,1.57
2017-08-20T08:41:56.055Z,2.10
2017-08-20T08:44:23.711Z,2.40
2017-08-20T08:46:51.439Z,2.00
2017-08-20T08:49:19.967Z,1.90
2017-08-20T08:51:47.603Z,1.60
2017-08-20T08:54:15.249Z,2.30
2017-08-20T08:56:43.750Z,1.77
2017-08-20T08:59:11.403Z,1.43
2017-08-20T09:01:39.038Z,1.70
2017-08-20T09:04:06.703Z,1.73
2017-08-20T09:06:34.390Z,2.67
2017-08-20T09:09:02.037Z,1.60
2017-08-20T09:11:30.497Z,2.00
2017-08-20T09:13:58.163Z,1.63
2017-08-20T09:16:25.800Z,1.50
2017-08-20T09:18:53.488Z,1.70
2017-08-20T09:21:21.131Z,2.17
2017-08-20T09:23:48.784Z,1.60
2017-08-20T09:26:16.531Z,1.50
2017-08-20T09:28:44.173Z,1.50
2017-08-20T09:31:11.804Z,1.30
2017-08-20T09:33:40.242Z,1.73
2017-08-20T09:36:07.883Z,1.50
2017-08-20T09:38:35.519Z,1.73
2017-08-20T09:41:03.209Z,1.50
2017-08-20T09:43:30.857Z,1.80
2017-08-20T09:45:58.512Z,1.87
2017-08-20T09:48:26.181Z,1.50
2017-08-20T09:50:53.841Z,1.20
2017-08-20T09:53:21.508Z,1.30
2017-08-20T09:55:49.243Z,1.20
2017-08-20T09:58:16.879Z,1.30
2017-08-20T10:00:44.537Z,1.50
2017-08-20T10:03:12.233Z,1.13
2017-08-20T10:05:39.914Z,1.67
2017-08-20T10:08:07.561Z,1.30
2017-08-20T10:10:36.016Z,1.50
2017-08-20T10:13:03.658Z,1.50
2017-08-20T10:15:31.313Z,1.50
2017-08-20T10:17:59.009Z,1.40
2017-08-20T10:20:26.646Z,1.37
2017-08-20T10:22:54.291Z,1.10
2017-08-20T10:25:21.966Z,1.40
2017-08-20T10:27:49.637Z,1.20
2017-08-20T10:30:17.284Z,1.23
2017-08-20T10:32:44.967Z,1.47
2017-08-20T10:35:12.621Z,1.40
2017-08-20T10:37:40.257Z,1.57
2017-08-20T10:40:07.924Z,2.07
2017-08-20T10:42:35.572Z,1.43
2017-08-20T10:45:03.214Z,1.43
2017-08-20T10:47:31.084Z,2.23
2017-08-20T10:49:58.756Z,1.40
2017-08-20T10:52:26.434Z,1.30
2017-08-20T10:54:54.131Z,1.43
2017-08-20T10:57:21.803Z,1.73
2017-08-20T11:05:39.868Z,1.20
2017-08-20T11:08:08.320Z,1.30
2017-08-20T11:10:36.441Z,1.13
2017-08-20T11:13:04.179Z,1.20
2017-08-20T11:15:32.639Z,1.60
2017-08-20T11:18:00.337Z,1.50
2017-08-20T11:20:28.019Z,1.60
2017-08-20T11:22:56.039Z,1.43
2017-08-20T11:25:23.780Z,1.73
2017-08-20T11:27:51.849Z,1.27
2017-08-20T11:30:19.576Z,1.40
2017-08-20T11:32:48.166Z,1.43
2017-08-20T11:35:15.935Z,1.53
2017-08-20T11:37:43.758Z,1.30
2017-08-20T11:40:11.541Z,1.40
2017-08-20T11:42:39.359Z,1.67
2017-08-20T11:45:07.197Z,1.30
2017-08-20T11:47:36.002Z,1.40
2017-08-20T11:50:04.114Z,1.30
2017-08-20T11:52:32.160Z,1.40
2017-08-20T11:54:59.845Z,1.30
2017-08-20T11:57:27.511Z,1.83
2017-08-20T11:59:55.497Z,1.40
2017-08-20T12:02:23.931Z,1.30
2017-08-20T12:04:51.586Z,1.23
2017-08-20T12:07:19.278Z,1.33
2017-08-20T12:09:46.939Z,1.50
2017-08-20T12:12:14.639Z,1.40
2017-08-20T12:14:42.429Z,1.23
2017-08-20T12:17:10.468Z,1.67
2017-08-20T12:19:38.157Z,1.37
2017-08-20T12:22:05.807Z,1.27
2017-08-20T12:24:33.481Z,1.20
2017-08-20T12:27:01.154Z,1.57
2017-08-20T12:29:28.860Z,1.70
2017-08-20T12:31:56.536Z,1.43
2017-08-20T12:34:25.092Z,1.33
2017-08-20T12:36:52.748Z,1.60
2017-08-20T12:39:21.796Z,1.23
2017-08-20T12:41:49.564Z,1.80
2017-08-20T12:44:17.703Z,1.40
2017-08-20T12:46:46.159Z,1.50
2017-08-20T12:49:13.874Z,1.30
2017-08-20T12:51:41.909Z,1.50
2017-08-20T12:54:10.319Z,1.37
2017-08-20T12:56:38.032Z,1.60
2017-08-20T12:59:05.692Z,1.43
2017-08-20T13:01:33.361Z,1.40
2017-08-20T13:04:01.097Z,1.50
2017-08-20T13:06:28.744Z,1.40
2017-08-20T13:08:56.477Z,1.67
2017-08-20T13:11:24.928Z,1.97
2017-08-20T13:13:52.625Z,1.60
2017-08-20T13:16:20.278Z,1.53
2017-08-20T13:18:49.099Z,1.73
2017-08-20T13:21:16.851Z,1.62
2017-08-20T13:23:45.568Z,1.70
2017-08-20T13:26:13.248Z,1.50
2017-08-20T13:28:40.897Z,1.40
2017-08-20T13:31:08.664Z,1.60
2017-08-20T13:33:36.461Z,1.77
2017-08-20T13:36:04.977Z,1.67
2017-08-20T13:38:35.178Z,1.87
2017-08-20T13:41:03.630Z,1.30
2017-08-20T13:43:31.290Z,1.43
2017-08-20T13:45:58.963Z,1.40
2017-08-20T13:48:26.660Z,1.40
2017-08-20T13:50:54.330Z,1.50
2017-08-20T13:53:22.148Z,1.50
2017-08-20T13:55:49.902Z,1.40
2017-08-20T13:58:17.603Z,1.50
2017-08-20T14:00:46.042Z,1.50
2017-08-20T14:03:13.751Z,1.30
2017-08-20T14:05:41.525Z,1.40
2017-08-20T14:08:09.573Z,1.40
2017-08-20T14:10:38.002Z,1.37
2017-08-20T14:13:05.682Z,1.50
2017-08-20T14:15:33.385Z,1.40
2017-08-20T14:18:01.819Z,1.37
2017-08-20T14:20:29.505Z,1.57
2017-08-20T14:22:57.155Z,1.80
2017-08-20T14:25:25.266Z,1.60
2017-08-20T14:27:53.678Z,1.50
2017-08-20T14:30:21.341Z,1.33
2017-08-20T14:32:49.021Z,1.30
2017-08-20T14:35:16.694Z,1.50
2017-08-20T14:37:44.497Z,1.57
2017-08-20T14:40:12.902Z,1.37
2017-08-20T14:42:40.591Z,1.60
2017-08-20T14:45:08.349Z,1.90
2017-08-20T14:47:36.337Z,2.00
2017-08-20T14:50:04.008Z,1.57
2017-08-20T14:52:31.661Z,1.40
2017-08-20T14:54:59.341Z,1.63
2017-08-20T14:57:27.765Z,1.20
2017-08-20T14:59:55.519Z,1.63
2017-08-20T15:02:23.391Z,1.60
2017-08-20T15:04:51.475Z,1.90
2017-08-20T15:07:19.140Z,1.50
2017-08-20T15:09:46.820Z,1.70
2017-08-20T15:12:14.494Z,1.60
2017-08-20T15:14:42.140Z,1.60
2017-08-20T15:17:09.811Z,1.53
2017-08-20T15:19:37.471Z,1.60
2017-08-20T15:22:05.571Z,1.70
2017-08-20T15:24:33.997Z,1.70
2017-08-20T15:27:01.676Z,3.20
2017-08-20T15:29:29.718Z,1.20
2017-08-20T15:31:57.471Z,1.30
2017-08-20T15:34:25.334Z,1.67
2017-08-20T15:36:53.043Z,1.60
2017-08-20T15:39:20.854Z,1.40
2017-08-20T15:41:48.921Z,1.80
2017-08-20T15:44:17.360Z,1.90
2017-08-20T15:46:45.062Z,1.40
2017-08-20T15:49:14.360Z,1.53
2017-08-20T15:51:42.778Z,1.50
2017-08-20T15:54:10.471Z,1.70
2017-08-20T15:56:38.475Z,1.33
2017-08-20T15:59:06.910Z,1.50
2017-08-20T16:01:34.557Z,1.70
2017-08-20T16:04:02.564Z,1.60
2017-08-20T16:06:30.230Z,1.97
2017-08-20T16:08:57.898Z,1.67
2017-08-20T16:11:26.637Z,1.67
2017-08-20T16:13:54.278Z,1.73
2017-08-20T16:16:21.944Z,1.87
2017-08-20T16:18:49.913Z,1.40
2017-08-20T16:21:17.586Z,1.70
2017-08-20T16:23:45.228Z,1.80
2017-08-20T16:26:13.285Z,2.13
2017-08-20T16:28:41.846Z,1.47
2017-08-20T16:31:09.510Z,1.50
2017-08-20T16:33:37.499Z,1.50
2017-08-20T16:36:06.069Z,1.43
2017-08-20T16:38:33.728Z,2.87
2017-08-20T16:41:01.818Z,1.40
2017-08-20T16:43:30.240Z,1.60
2017-08-20T16:45:57.891Z,2.10
2017-08-20T16:48:26.006Z,1.40
2017-08-20T16:50:53.678Z,1.67
2017-08-20T16:53:22.177Z,1.57
2017-08-20T16:55:50.249Z,1.60
2017-08-20T16:58:18.654Z,2.03
2017-08-20T17:00:46.306Z,1.83
2017-08-20T17:03:14.368Z,1.90
2017-08-20T17:05:42.063Z,1.57
2017-08-20T17:08:09.709Z,2.50
2017-08-20T17:10:37.757Z,2.10
2017-08-20T17:13:06.198Z,1.60
2017-08-20T17:15:33.856Z,1.80
2017-08-20T17:18:01.904Z,2.53
2017-08-20T17:20:29.556Z,2.63
2017-08-20T17:22:57.194Z,1.87
2017-08-20T17:25:25.927Z,1.40
2017-08-20T17:27:53.579Z,1.93
2017-08-20T17:30:21.221Z,1.73
2017-08-20T17:32:49.281Z,1.80
2017-08-20T17:35:16.953Z,2.30
2017-08-20T17:37:44.617Z,3.50
2017-08-20T17:40:12.592Z,3.40
2017-08-20T17:42:40.269Z,2.40
2017-08-20T17:45:07.932Z,3.27
2017-08-20T17:47:35.971Z,2.10
2017-08-20T17:50:03.648Z,1.80
2017-08-20T17:52:31.434Z,1.80
2017-08-20T17:54:59.423Z,2.53
2017-08-20T17:57:27.075Z,2.87
2017-08-20T17:59:54.718Z,2.70
2017-08-20T18:02:22.700Z,2.93
2017-08-20T18:04:50.578Z,2.10
2017-08-20T18:07:18.275Z,1.93
2017-08-20T18:09:46.322Z,2.13
2017-08-20T18:12:14.051Z,1.80
2017-08-20T18:14:41.714Z,2.17
2017-08-20T18:17:09.710Z,2.90
2017-08-20T18:19:37.374Z,2.30
2017-08-20T18:22:05.098Z,2.30
2017-08-20T18:24:33.117Z,2.00
2017-08-20T18:27:00.793Z,2.17
2017-08-20T18:29:29.563Z,1.70
2017-08-20T18:31:57.785Z,1.67
2017-08-20T18:34:25.463Z,1.90
2017-08-20T18:36:53.193Z,1.73
2017-08-20T18:39:21.194Z,1.93
2017-08-20T18:41:49.176Z,1.90
2017-08-20T18:44:16.855Z,1.93
2017-08-20T18:46:44.870Z,1.90
2017-08-20T18:49:12.518Z,2.53
2017-08-20T18:51:40.977Z,2.53
2017-08-20T18:54:08.708Z,1.90
2017-08-20T18:56:36.404Z,2.37
2017-08-20T18:59:04.170Z,1.90
2017-08-20T19:01:31.831Z,2.23
2017-08-20T19:03:59.511Z,2.40
2017-08-20T19:06:27.186Z,1.70
2017-08-20T19:08:54.939Z,2.17
2017-08-20T19:11:22.631Z,2.47
2017-08-20T19:13:50.319Z,3.33
2017-08-20T19:16:18.007Z,2.47
2017-08-20T19:18:45.720Z,2.43
2017-08-20T19:21:13.777Z,2.40
2017-08-20T19:23:41.428Z,2.10
2017-08-20T19:26:09.116Z,2.50
2017-08-20T19:28:37.194Z,2.27
2017-08-20T19:31:04.880Z,2.37
2017-08-20T19:33:32.582Z,2.50
2017-08-20T19:36:00.571Z,2.17
2017-08-20T19:38:28.283Z,2.50
2017-08-20T19:40:55.965Z,3.07
2017-08-20T19:43:25.296Z,2.80
2017-08-20T19:45:53.002Z,2.60
2017-08-20T19:48:20.678Z,2.60
2017-08-20T19:50:48.802Z,1.97
2017-08-20T19:53:16.528Z,2.20
2017-08-20T19:55:44.984Z,2.20
2017-08-20T19:58:13.050Z,2.10
2017-08-20T20:00:40.736Z,2.20
2017-08-20T20:03:08.445Z,2.27
2017-08-20T20:05:36.507Z,2.70
2017-08-20T20:08:04.206Z,2.40
2017-08-20T20:10:31.906Z,2.10
2017-08-20T20:13:00.738Z,2.10
2017-08-20T20:15:28.397Z,2.30
2017-08-20T20:17:56.075Z,2.00
2017-08-20T20:20:24.100Z,2.03
2017-08-20T20:22:52.553Z,2.10
2017-08-20T20:25:20.215Z,2.07
2017-08-20T20:27:48.202Z,2.30
2017-08-20T20:30:16.660Z,2.17
2017-08-20T20:32:44.343Z,2.00
2017-08-20T20:35:13.113Z,2.10
2017-08-20T20:37:40.780Z,2.10
2017-08-20T20:40:08.425Z,1.80
2017-08-20T20:42:36.442Z,2.30
2017-08-20T20:45:05.063Z,2.03
2017-08-20T20:47:33.640Z,2.03
2017-08-20T20:50:01.724Z,2.30
2017-08-20T20:52:29.368Z,2.20
2017-08-20T20:54:57.365Z,1.63
2017-08-20T20:57:25.486Z,2.00
2017-08-20T20:59:54.018Z,1.93
2017-08-20T21:02:21.675Z,2.20
2017-08-20T21:04:49.740Z,2.00
2017-08-20T21:07:17.419Z,1.90
2017-08-20T21:09:45.142Z,2.30
2017-08-20T21:12:13.387Z,2.70
2017-08-20T21:14:41.254Z,2.30
2017-08-20T21:17:08.981Z,2.10
2017-08-20T21:19:37.106Z,2.47
2017-08-20T21:22:04.798Z,2.10
2017-08-20T21:24:32.470Z,2.17
2017-08-20T21:27:00.535Z,2.23
2017-08-20T21:29:28.209Z,2.00
2017-08-20T21:31:56.287Z,2.47
2017-08-20T21:34:24.587Z,2.00
2017-08-20T21:36:52.397Z,2.80
2017-08-20T21:39:20.218Z,2.07
2017-08-20T21:41:47.887Z,3.00
2017-08-20T21:44:16.491Z,2.00
2017-08-20T21:46:44.403Z,2.03
2017-08-20T21:49:12.857Z,1.97
2017-08-20T21:51:41.143Z,2.43
2017-08-20T21:54:08.792Z,2.20
2017-08-20T21:56:36.430Z,2.10
2017-08-20T21:59:05.230Z,1.80
2017-08-20T22:01:33.062Z,2.40
2017-08-20T22:04:00.911Z,2.30
2017-08-20T22:06:28.936Z,2.03
2017-08-20T22:08:56.847Z,2.30
2017-08-20T22:11:24.507Z,2.60
2017-08-20T22:13:52.611Z,2.33
2017-08-20T22:16:21.016Z,2.07
2017-08-20T22:18:48.810Z,2.23
2017-08-20T22:21:17.336Z,3.43
2017-08-20T22:23:45.822Z,4.40
2017-08-20T22:26:14.649Z,3.57
2017-08-20T22:28:42.705Z,3.83
